sensor_id;sensor_type;location;lat;lon;timestamp;P1;durP1;ratioP1;P2;durP2;ratioP2
11837;SDS011;5978;51.020;6.764;2023-03-26T00:01:32;20.73;;;5.25;;
11837;SDS011;5978;51.020;6.764;2023-03-26T00:04:00;23.80;;;4.47;;
11837;SDS011;5978;51.020;6.764;2023-03-26T00:06:31;11.27;;;3.90;;
11837;SDS011;5978;51.020;6.764;2023-03-26T00:09:00;14.15;;;4.93;;
11837;SDS011;5978;51.020;6.764;2023-03-26T00:11:27;12.90;;;3.37;;
11837;SDS011;5978;51.020;6.764;2023-03-26T00:13:54;17.42;;;4.10;;
11837;SDS011;5978;51.020;6.764;2023-03-26T00:16:26;23.33;;;4.05;;
11837;SDS011;5978;51.020;6.764;2023-03-26T00:18:54;23.92;;;5.13;;
11837;SDS011;5978;51.020;6.764;2023-03-26T00:21:22;15.52;;;4.85;;
11837;SDS011;5978;51.020;6.764;2023-03-26T00:23:59;18.95;;;4.00;;
11837;SDS011;5978;51.020;6.764;2023-03-26T00:26:31;19.27;;;3.90;;
11837;SDS011;5978;51.020;6.764;2023-03-26T00:28:58;17.10;;;3.20;;
11837;SDS011;5978;51.020;6.764;2023-03-26T00:31:27;21.83;;;3.80;;
11837;SDS011;5978;51.020;6.764;2023-03-26T00:33:53;15.00;;;3.93;;
11837;SDS011;5978;51.020;6.764;2023-03-26T00:36:20;21.73;;;4.07;;
11837;SDS011;5978;51.020;6.764;2023-03-26T00:38:46;15.23;;;4.43;;
11837;SDS011;5978;51.020;6.764;2023-03-26T00:41:13;11.37;;;3.30;;
11837;SDS011;5978;51.020;6.764;2023-03-26T00:44:01;13.82;;;4.13;;
11837;SDS011;5978;51.020;6.764;2023-03-26T00:46:28;13.45;;;3.45;;
11837;SDS011;5978;51.020;6.764;2023-03-26T00:48:55;14.02;;;4.03;;
11837;SDS011;5978;51.020;6.764;2023-03-26T00:51:23;15.45;;;3.58;;
11837;SDS011;5978;51.020;6.764;2023-03-26T00:53:50;12.45;;;3.75;;
11837;SDS011;5978;51.020;6.764;2023-03-26T00:56:16;19.67;;;5.27;;
11837;SDS011;5978;51.020;6.764;2023-03-26T00:58:43;15.20;;;4.28;;
11837;SDS011;5978;51.020;6.764;2023-03-26T01:01:11;15.10;;;3.40;;
11837;SDS011;5978;51.020;6.764;2023-03-26T01:03:40;20.38;;;3.83;;
11837;SDS011;5978;51.020;6.764;2023-03-26T01:06:29;14.07;;;4.53;;
11837;SDS011;5978;51.020;6.764;2023-03-26T01:09:03;19.63;;;4.32;;
11837;SDS011;5978;51.020;6.764;2023-03-26T01:11:37;18.63;;;4.38;;
11837;SDS011;5978;51.020;6.764;2023-03-26T01:14:07;20.40;;;4.30;;
11837;SDS011;5978;51.020;6.764;2023-03-26T01:16:43;22.67;;;4.40;;
11837;SDS011;5978;51.020;6.764;2023-03-26T01:19:35;24.27;;;4.75;;
11837;SDS011;5978;51.020;6.764;2023-03-26T01:22:08;18.33;;;5.50;;
11837;SDS011;5978;51.020;6.764;2023-03-26T01:24:37;13.43;;;3.72;;
11837;SDS011;5978;51.020;6.764;2023-03-26T01:35:10;12.90;;;4.78;;
11837;SDS011;5978;51.020;6.764;2023-03-26T01:37:59;15.70;;;3.92;;
11837;SDS011;5978;51.020;6.764;2023-03-26T01:40:39;10.93;;;3.35;;
11837;SDS011;5978;51.020;6.764;2023-03-26T01:46:08;13.77;;;4.15;;
11837;SDS011;5978;51.020;6.764;2023-03-26T01:48:36;18.55;;;5.47;;
11837;SDS011;5978;51.020;6.764;2023-03-26T01:51:03;13.93;;;3.97;;
11837;SDS011;5978;51.020;6.764;2023-03-26T01:53:30;23.88;;;4.82;;
11837;SDS011;5978;51.020;6.764;2023-03-26T02:03:52;12.05;;;4.00;;
11837;SDS011;5978;51.020;6.764;2023-03-26T02:06:42;18.27;;;4.50;;
11837;SDS011;5978;51.020;6.764;2023-03-26T02:09:12;16.23;;;3.72;;
11837;SDS011;5978;51.020;6.764;2023-03-26T02:11:42;15.38;;;3.33;;
11837;SDS011;5978;51.020;6.764;2023-03-26T02:14:10;11.57;;;3.30;;
11837;SDS011;5978;51.020;6.764;2023-03-26T02:16:38;14.55;;;3.97;;
11837;SDS011;5978;51.020;6.764;2023-03-26T02:19:04;12.10;;;3.60;;
11837;SDS011;5978;51.020;6.764;2023-03-26T02:21:34;13.80;;;3.20;;
11837;SDS011;5978;51.020;6.764;2023-03-26T02:23:59;17.23;;;4.00;;
11837;SDS011;5978;51.020;6.764;2023-03-26T02:26:29;11.63;;;3.65;;
11837;SDS011;5978;51.020;6.764;2023-03-26T02:28:56;27.45;;;3.80;;
11837;SDS011;5978;51.020;6.764;2023-03-26T02:31:22;7.57;;;3.03;;
11837;SDS011;5978;51.020;6.764;2023-03-26T02:33:50;11.20;;;3.47;;
11837;SDS011;5978;51.020;6.764;2023-03-26T02:36:17;13.93;;;4.60;;
11837;SDS011;5978;51.020;6.764;2023-03-26T02:38:48;5.65;;;2.72;;
11837;SDS011;5978;51.020;6.764;2023-03-26T02:41:15;11.30;;;3.50;;
11837;SDS011;5978;51.020;6.764;2023-03-26T02:43:41;12.48;;;3.17;;
11837;SDS011;5978;51.020;6.764;2023-03-26T02:46:06;16.57;;;3.63;;
11837;SDS011;5978;51.020;6.764;2023-03-26T02:48:32;10.47;;;3.70;;
11837;SDS011;5978;51.020;6.764;2023-03-26T02:50:59;6.53;;;2.97;;
11837;SDS011;5978;51.020;6.764;2023-03-26T02:53:25;18.08;;;4.63;;
11837;SDS011;5978;51.020;6.764;2023-03-26T02:55:54;15.10;;;3.78;;
11837;SDS011;5978;51.020;6.764;2023-03-26T02:58:23;19.98;;;5.38;;
11837;SDS011;5978;51.020;6.764;2023-03-26T03:00:51;8.70;;;3.20;;
11837;SDS011;5978;51.020;6.764;2023-03-26T03:03:23;11.45;;;3.85;;
11837;SDS011;5978;51.020;6.764;2023-03-26T03:05:51;6.85;;;3.58;;
11837;SDS011;5978;51.020;6.764;2023-03-26T03:08:18;20.17;;;3.60;;
11837;SDS011;5978;51.020;6.764;2023-03-26T03:10:57;9.68;;;2.80;;
11837;SDS011;5978;51.020;6.764;2023-03-26T03:13:31;6.22;;;2.92;;
11837;SDS011;5978;51.020;6.764;2023-03-26T03:15:56;16.83;;;5.83;;
11837;SDS011;5978;51.020;6.764;2023-03-26T03:18:22;12.40;;;4.07;;
11837;SDS011;5978;51.020;6.764;2023-03-26T03:20:48;14.33;;;3.43;;
11837;SDS011;5978;51.020;6.764;2023-03-26T03:23:14;9.30;;;3.77;;
11837;SDS011;5978;51.020;6.764;2023-03-26T03:25:40;11.65;;;3.15;;
11837;SDS011;5978;51.020;6.764;2023-03-26T03:28:06;10.60;;;2.97;;
11837;SDS011;5978;51.020;6.764;2023-03-26T03:30:33;12.68;;;3.60;;
11837;SDS011;5978;51.020;6.764;2023-03-26T03:32:59;11.10;;;3.03;;
11837;SDS011;5978;51.020;6.764;2023-03-26T03:35:26;15.38;;;4.70;;
11837;SDS011;5978;51.020;6.764;2023-03-26T03:37:54;12.77;;;4.10;;
11837;SDS011;5978;51.020;6.764;2023-03-26T03:40:23;16.83;;;4.50;;
11837;SDS011;5978;51.020;6.764;2023-03-26T03:42:50;10.15;;;3.53;;
11837;SDS011;5978;51.020;6.764;2023-03-26T03:45:15;12.30;;;4.20;;
11837;SDS011;5978;51.020;6.764;2023-03-26T03:47:41;14.55;;;3.72;;
11837;SDS011;5978;51.020;6.764;2023-03-26T03:50:07;14.37;;;3.70;;
11837;SDS011;5978;51.020;6.764;2023-03-26T03:52:34;11.25;;;3.15;;
11837;SDS011;5978;51.020;6.764;2023-03-26T03:55:00;21.50;;;3.80;;
11837;SDS011;5978;51.020;6.764;2023-03-26T03:57:26;11.33;;;3.90;;
11837;SDS011;5978;51.020;6.764;2023-03-26T03:59:52;7.78;;;4.20;;
11837;SDS011;5978;51.020;6.764;2023-03-26T04:02:18;8.10;;;2.93;;
11837;SDS011;5978;51.020;6.764;2023-03-26T04:04:52;9.20;;;3.08;;
11837;SDS011;5978;51.020;6.764;2023-03-26T04:07:19;13.88;;;4.53;;
11837;SDS011;5978;51.020;6.764;2023-03-26T04:09:45;13.00;;;3.63;;
11837;SDS011;5978;51.020;6.764;2023-03-26T04:12:10;7.10;;;2.83;;
11837;SDS011;5978;51.020;6.764;2023-03-26T04:14:36;15.03;;;3.20;;
11837;SDS011;5978;51.020;6.764;2023-03-26T04:17:02;21.03;;;3.47;;
11837;SDS011;5978;51.020;6.764;2023-03-26T04:19:30;11.60;;;2.75;;
11837;SDS011;5978;51.020;6.764;2023-03-26T04:21:55;4.97;;;2.30;;
11837;SDS011;5978;51.020;6.764;2023-03-26T04:24:29;11.80;;;2.60;;
11837;SDS011;5978;51.020;6.764;2023-03-26T04:26:58;9.63;;;2.65;;
11837;SDS011;5978;51.020;6.764;2023-03-26T04:29:27;7.13;;;3.05;;
11837;SDS011;5978;51.020;6.764;2023-03-26T04:31:56;7.55;;;2.40;;
11837;SDS011;5978;51.020;6.764;2023-03-26T04:34:23;9.85;;;2.80;;
11837;SDS011;5978;51.020;6.764;2023-03-26T04:36:52;12.27;;;2.50;;
11837;SDS011;5978;51.020;6.764;2023-03-26T04:39:18;12.38;;;3.33;;
11837;SDS011;5978;51.020;6.764;2023-03-26T04:41:46;7.65;;;2.72;;
11837;SDS011;5978;51.020;6.764;2023-03-26T04:44:12;6.50;;;2.42;;
11837;SDS011;5978;51.020;6.764;2023-03-26T04:46:41;12.52;;;2.28;;
11837;SDS011;5978;51.020;6.764;2023-03-26T04:49:08;6.57;;;2.45;;
11837;SDS011;5978;51.020;6.764;2023-03-26T04:51:37;11.73;;;3.45;;
11837;SDS011;5978;51.020;6.764;2023-03-26T04:54:06;6.45;;;2.50;;
11837;SDS011;5978;51.020;6.764;2023-03-26T04:57:06;9.32;;;2.97;;
11837;SDS011;5978;51.020;6.764;2023-03-26T04:59:27;6.43;;;2.95;;
11837;SDS011;5978;51.020;6.764;2023-03-26T05:01:58;3.08;;;2.45;;
11837;SDS011;5978;51.020;6.764;2023-03-26T05:04:25;9.50;;;2.85;;
11837;SDS011;5978;51.020;6.764;2023-03-26T05:06:51;11.43;;;3.17;;
11837;SDS011;5978;51.020;6.764;2023-03-26T05:09:18;17.38;;;3.25;;
11837;SDS011;5978;51.020;6.764;2023-03-26T05:11:44;11.10;;;2.90;;
11837;SDS011;5978;51.020;6.764;2023-03-26T05:14:09;3.80;;;3.00;;
11837;SDS011;5978;51.020;6.764;2023-03-26T05:16:35;16.23;;;3.80;;
11837;SDS011;5978;51.020;6.764;2023-03-26T05:19:01;12.68;;;4.25;;
11837;SDS011;5978;51.020;6.764;2023-03-26T05:21:27;15.60;;;3.63;;
11837;SDS011;5978;51.020;6.764;2023-03-26T05:23:53;14.30;;;3.67;;
11837;SDS011;5978;51.020;6.764;2023-03-26T05:26:18;8.57;;;3.77;;
11837;SDS011;5978;51.020;6.764;2023-03-26T05:28:44;9.43;;;3.30;;
11837;SDS011;5978;51.020;6.764;2023-03-26T05:31:10;17.40;;;3.63;;
11837;SDS011;5978;51.020;6.764;2023-03-26T05:33:37;26.83;;;5.60;;
11837;SDS011;5978;51.020;6.764;2023-03-26T05:36:03;13.15;;;3.47;;
11837;SDS011;5978;51.020;6.764;2023-03-26T05:38:31;10.00;;;3.30;;
11837;SDS011;5978;51.020;6.764;2023-03-26T05:40:58;16.73;;;3.30;;
11837;SDS011;5978;51.020;6.764;2023-03-26T05:43:25;10.93;;;2.85;;
11837;SDS011;5978;51.020;6.764;2023-03-26T05:45:52;14.38;;;3.42;;
11837;SDS011;5978;51.020;6.764;2023-03-26T05:48:17;14.60;;;3.50;;
11837;SDS011;5978;51.020;6.764;2023-03-26T05:50:43;9.47;;;4.33;;
11837;SDS011;5978;51.020;6.764;2023-03-26T05:53:11;8.40;;;3.42;;
11837;SDS011;5978;51.020;6.764;2023-03-26T05:55:37;8.10;;;3.80;;
11837;SDS011;5978;51.020;6.764;2023-03-26T05:58:04;9.40;;;3.67;;
11837;SDS011;5978;51.020;6.764;2023-03-26T06:00:30;15.00;;;3.50;;
11837;SDS011;5978;51.020;6.764;2023-03-26T06:02:57;9.77;;;3.05;;
11837;SDS011;5978;51.020;6.764;2023-03-26T06:05:23;12.03;;;4.13;;
11837;SDS011;5978;51.020;6.764;2023-03-26T06:07:50;22.85;;;4.38;;
11837;SDS011;5978;51.020;6.764;2023-03-26T06:10:16;11.10;;;5.60;;
11837;SDS011;5978;51.020;6.764;2023-03-26T06:12:42;7.75;;;3.28;;
11837;SDS011;5978;51.020;6.764;2023-03-26T06:15:08;9.13;;;3.10;;
11837;SDS011;5978;51.020;6.764;2023-03-26T06:17:34;11.95;;;3.20;;
11837;SDS011;5978;51.020;6.764;2023-03-26T06:20:00;9.03;;;3.37;;
11837;SDS011;5978;51.020;6.764;2023-03-26T06:22:26;6.00;;;3.17;;
11837;SDS011;5978;51.020;6.764;2023-03-26T06:24:51;7.33;;;3.30;;
11837;SDS011;5978;51.020;6.764;2023-03-26T06:27:17;14.57;;;4.07;;
11837;SDS011;5978;51.020;6.764;2023-03-26T06:29:43;7.53;;;3.23;;
11837;SDS011;5978;51.020;6.764;2023-03-26T06:32:08;9.47;;;4.03;;
11837;SDS011;5978;51.020;6.764;2023-03-26T06:34:34;13.20;;;3.93;;
11837;SDS011;5978;51.020;6.764;2023-03-26T06:37:00;6.13;;;2.87;;
11837;SDS011;5978;51.020;6.764;2023-03-26T06:39:26;8.53;;;3.70;;
11837;SDS011;5978;51.020;6.764;2023-03-26T06:41:51;12.60;;;3.37;;
11837;SDS011;5978;51.020;6.764;2023-03-26T06:44:17;10.23;;;4.00;;
11837;SDS011;5978;51.020;6.764;2023-03-26T06:46:42;10.50;;;3.70;;
11837;SDS011;5978;51.020;6.764;2023-03-26T06:49:08;12.40;;;4.27;;
11837;SDS011;5978;51.020;6.764;2023-03-26T06:51:33;9.97;;;3.57;;
11837;SDS011;5978;51.020;6.764;2023-03-26T06:53:59;10.67;;;4.10;;
11837;SDS011;5978;51.020;6.764;2023-03-26T06:56:25;12.13;;;4.37;;
11837;SDS011;5978;51.020;6.764;2023-03-26T06:58:51;6.68;;;4.15;;
11837;SDS011;5978;51.020;6.764;2023-03-26T07:01:16;13.50;;;3.57;;
11837;SDS011;5978;51.020;6.764;2023-03-26T07:03:42;10.23;;;4.20;;
11837;SDS011;5978;51.020;6.764;2023-03-26T07:06:08;16.00;;;5.40;;
11837;SDS011;5978;51.020;6.764;2023-03-26T07:08:33;13.80;;;5.77;;
11837;SDS011;5978;51.020;6.764;2023-03-26T07:10:59;12.52;;;4.50;;
11837;SDS011;5978;51.020;6.764;2023-03-26T07:13:25;16.17;;;4.77;;
11837;SDS011;5978;51.020;6.764;2023-03-26T07:15:51;14.13;;;5.83;;
11837;SDS011;5978;51.020;6.764;2023-03-26T07:18:17;17.30;;;5.10;;
11837;SDS011;5978;51.020;6.764;2023-03-26T07:20:43;16.43;;;5.70;;
11837;SDS011;5978;51.020;6.764;2023-03-26T07:23:10;14.57;;;4.32;;
11837;SDS011;5978;51.020;6.764;2023-03-26T07:25:36;12.30;;;4.70;;
11837;SDS011;5978;51.020;6.764;2023-03-26T07:36:27;15.93;;;5.35;;
11837;SDS011;5978;51.020;6.764;2023-03-26T07:44:59;23.10;;;5.85;;
11837;SDS011;5978;51.020;6.764;2023-03-26T07:47:36;17.35;;;6.95;;
11837;SDS011;5978;51.020;6.764;2023-03-26T07:50:06;19.00;;;6.80;;
11837;SDS011;5978;51.020;6.764;2023-03-26T07:52:34;16.35;;;5.78;;
11837;SDS011;5978;51.020;6.764;2023-03-26T07:55:00;11.75;;;5.68;;
11837;SDS011;5978;51.020;6.764;2023-03-26T08:00:06;9.70;;;6.25;;
11837;SDS011;5978;51.020;6.764;2023-03-26T08:16:40;12.13;;;6.05;;
11837;SDS011;5978;51.020;6.764;2023-03-26T08:21:58;10.77;;;5.63;;
11837;SDS011;5978;51.020;6.764;2023-03-26T08:24:37;18.23;;;6.78;;
11837;SDS011;5978;51.020;6.764;2023-03-26T08:27:19;9.77;;;5.18;;
11837;SDS011;5978;51.020;6.764;2023-03-26T08:32:35;11.80;;;5.78;;
11837;SDS011;5978;51.020;6.764;2023-03-26T08:35:01;13.20;;;6.00;;
11837;SDS011;5978;51.020;6.764;2023-03-26T08:37:28;18.88;;;5.95;;
11837;SDS011;5978;51.020;6.764;2023-03-26T08:39:54;19.40;;;7.10;;
11837;SDS011;5978;51.020;6.764;2023-03-26T08:48:01;12.98;;;5.00;;
11837;SDS011;5978;51.020;6.764;2023-03-26T08:59:12;9.25;;;4.28;;
11837;SDS011;5978;51.020;6.764;2023-03-26T09:30:04;6.55;;;2.22;;
11837;SDS011;5978;51.020;6.764;2023-03-26T09:32:56;2.78;;;2.53;;
11837;SDS011;5978;51.020;6.764;2023-03-26T09:41:14;4.25;;;1.27;;
11837;SDS011;5978;51.020;6.764;2023-03-26T09:47:07;5.30;;;1.83;;
11837;SDS011;5978;51.020;6.764;2023-03-26T09:49:49;6.70;;;2.08;;
11837;SDS011;5978;51.020;6.764;2023-03-26T09:52:31;6.40;;;2.22;;
11837;SDS011;5978;51.020;6.764;2023-03-26T10:09:56;4.40;;;2.10;;
11837;SDS011;5978;51.020;6.764;2023-03-26T10:12:45;1.90;;;1.55;;
11837;SDS011;5978;51.020;6.764;2023-03-26T10:20:56;3.05;;;1.90;;
11837;SDS011;5978;51.020;6.764;2023-03-26T10:23:28;3.13;;;2.15;;
11837;SDS011;5978;51.020;6.764;2023-03-26T10:34:48;5.15;;;2.10;;
11837;SDS011;5978;51.020;6.764;2023-03-26T10:46:23;3.25;;;1.85;;
11837;SDS011;5978;51.020;6.764;2023-03-26T10:49:21;4.68;;;2.03;;
11837;SDS011;5978;51.020;6.764;2023-03-26T10:52:02;3.85;;;2.50;;
11837;SDS011;5978;51.020;6.764;2023-03-26T10:54:49;5.60;;;2.70;;
11837;SDS011;5978;51.020;6.764;2023-03-26T11:02:44;6.45;;;2.20;;
11837;SDS011;5978;51.020;6.764;2023-03-26T11:15:50;4.43;;;2.60;;
11837;SDS011;5978;51.020;6.764;2023-03-26T11:18:22;3.38;;;2.63;;
11837;SDS011;5978;51.020;6.764;2023-03-26T11:26:35;3.78;;;2.97;;
11837;SDS011;5978;51.020;6.764;2023-03-26T11:32:03;4.18;;;2.88;;
11837;SDS011;5978;51.020;6.764;2023-03-26T11:34:39;2.30;;;2.10;;
11837;SDS011;5978;51.020;6.764;2023-03-26T11:37:19;4.10;;;2.85;;
11837;SDS011;5978;51.020;6.764;2023-03-26T11:39:57;3.92;;;2.17;;
11837;SDS011;5978;51.020;6.764;2023-03-26T11:42:25;2.05;;;1.90;;
11837;SDS011;5978;51.020;6.764;2023-03-26T11:45:01;9.48;;;2.67;;
11837;SDS011;5978;51.020;6.764;2023-03-26T11:47:32;4.13;;;3.55;;
11837;SDS011;5978;51.020;6.764;2023-03-26T11:50:04;3.08;;;2.38;;
11837;SDS011;5978;51.020;6.764;2023-03-26T11:52:32;7.32;;;3.20;;
11837;SDS011;5978;51.020;6.764;2023-03-26T11:54:57;5.50;;;2.60;;
11837;SDS011;5978;51.020;6.764;2023-03-26T11:57:30;4.27;;;2.90;;
11837;SDS011;5978;51.020;6.764;2023-03-26T12:00:09;4.90;;;2.90;;
11837;SDS011;5978;51.020;6.764;2023-03-26T12:02:42;6.30;;;3.20;;
11837;SDS011;5978;51.020;6.764;2023-03-26T12:07:48;2.95;;;2.22;;
11837;SDS011;5978;51.020;6.764;2023-03-26T12:10:21;3.50;;;2.63;;
11837;SDS011;5978;51.020;6.764;2023-03-26T12:12:47;4.13;;;2.42;;
11837;SDS011;5978;51.020;6.764;2023-03-26T12:15:17;6.13;;;2.70;;
11837;SDS011;5978;51.020;6.764;2023-03-26T12:17:45;5.38;;;2.90;;
11837;SDS011;5978;51.020;6.764;2023-03-26T12:22:52;3.47;;;2.50;;
11837;SDS011;5978;51.020;6.764;2023-03-26T12:25:23;3.78;;;2.90;;
11837;SDS011;5978;51.020;6.764;2023-03-26T12:30:41;4.55;;;2.60;;
11837;SDS011;5978;51.020;6.764;2023-03-26T12:33:27;3.10;;;2.80;;
11837;SDS011;5978;51.020;6.764;2023-03-26T12:38:54;3.70;;;2.72;;
11837;SDS011;5978;51.020;6.764;2023-03-26T12:41:20;3.30;;;3.00;;
11837;SDS011;5978;51.020;6.764;2023-03-26T12:44:16;4.80;;;3.17;;
11837;SDS011;5978;51.020;6.764;2023-03-26T12:46:50;4.07;;;3.60;;
11837;SDS011;5978;51.020;6.764;2023-03-26T12:49:18;5.90;;;3.07;;
11837;SDS011;5978;51.020;6.764;2023-03-26T12:51:52;4.77;;;2.83;;
11837;SDS011;5978;51.020;6.764;2023-03-26T12:54:30;4.60;;;2.57;;
11837;SDS011;5978;51.020;6.764;2023-03-26T12:57:18;2.67;;;2.00;;
11837;SDS011;5978;51.020;6.764;2023-03-26T13:02:42;2.63;;;2.40;;
11837;SDS011;5978;51.020;6.764;2023-03-26T13:16:06;3.33;;;2.50;;
11837;SDS011;5978;51.020;6.764;2023-03-26T13:18:58;2.13;;;1.93;;
11837;SDS011;5978;51.020;6.764;2023-03-26T13:21:59;3.90;;;1.53;;
11837;SDS011;5978;51.020;6.764;2023-03-26T13:29:58;1.88;;;1.55;;
11837;SDS011;5978;51.020;6.764;2023-03-26T13:35:20;2.40;;;1.70;;
11837;SDS011;5978;51.020;6.764;2023-03-26T13:38:06;2.43;;;1.53;;
11837;SDS011;5978;51.020;6.764;2023-03-26T13:43:50;1.80;;;1.50;;
11837;SDS011;5978;51.020;6.764;2023-03-26T13:46:43;1.40;;;1.20;;
11837;SDS011;5978;51.020;6.764;2023-03-26T13:49:18;3.63;;;1.53;;
11837;SDS011;5978;51.020;6.764;2023-03-26T13:54:27;1.93;;;1.37;;
11837;SDS011;5978;51.020;6.764;2023-03-26T14:04:55;3.20;;;1.53;;
11837;SDS011;5978;51.020;6.764;2023-03-26T14:07:43;3.43;;;1.90;;
11837;SDS011;5978;51.020;6.764;2023-03-26T14:10:16;1.77;;;1.67;;
11837;SDS011;5978;51.020;6.764;2023-03-26T14:12:56;1.37;;;1.03;;
11837;SDS011;5978;51.020;6.764;2023-03-26T14:15:52;1.40;;;1.27;;
11837;SDS011;5978;51.020;6.764;2023-03-26T14:34:50;3.67;;;1.60;;
11837;SDS011;5978;51.020;6.764;2023-03-26T14:40:29;1.63;;;1.53;;
11837;SDS011;5978;51.020;6.764;2023-03-26T14:48:28;2.33;;;1.80;;
11837;SDS011;5978;51.020;6.764;2023-03-26T14:53:32;1.60;;;1.50;;
11837;SDS011;5978;51.020;6.764;2023-03-26T15:08:38;2.97;;;2.67;;
11837;SDS011;5978;51.020;6.764;2023-03-26T15:10:48;1.53;;;1.43;;
11837;SDS011;5978;51.020;6.764;2023-03-26T15:16:38;6.37;;;2.50;;
11837;SDS011;5978;51.020;6.764;2023-03-26T15:22:19;1.57;;;1.47;;
11837;SDS011;5978;51.020;6.764;2023-03-26T15:30:59;1.60;;;1.33;;
11837;SDS011;5978;51.020;6.764;2023-03-26T15:42:26;1.60;;;1.10;;
11837;SDS011;5978;51.020;6.764;2023-03-26T15:56:06;2.53;;;1.80;;
11837;SDS011;5978;51.020;6.764;2023-03-26T16:01:45;3.83;;;1.90;;
11837;SDS011;5978;51.020;6.764;2023-03-26T16:23:53;6.72;;;2.90;;
11837;SDS011;5978;51.020;6.764;2023-03-26T16:26:24;3.33;;;2.60;;
11837;SDS011;5978;51.020;6.764;2023-03-26T16:29:34;2.43;;;2.10;;
11837;SDS011;5978;51.020;6.764;2023-03-26T16:45:42;4.10;;;3.20;;
11837;SDS011;5978;51.020;6.764;2023-03-26T16:54:07;4.15;;;3.78;;
11837;SDS011;5978;51.020;6.764;2023-03-26T17:02:05;6.18;;;4.60;;
11837;SDS011;5978;51.020;6.764;2023-03-26T17:04:37;8.90;;;4.55;;
11837;SDS011;5978;51.020;6.764;2023-03-26T17:07:15;5.43;;;3.88;;
11837;SDS011;5978;51.020;6.764;2023-03-26T17:13:27;5.35;;;4.78;;
11837;SDS011;5978;51.020;6.764;2023-03-26T17:19:03;5.95;;;4.97;;
11837;SDS011;5978;51.020;6.764;2023-03-26T17:22:10;5.75;;;4.28;;
11837;SDS011;5978;51.020;6.764;2023-03-26T17:24:28;6.47;;;5.43;;
11837;SDS011;5978;51.020;6.764;2023-03-26T17:27:06;5.55;;;4.55;;
11837;SDS011;5978;51.020;6.764;2023-03-26T17:40:53;18.63;;;12.60;;
11837;SDS011;5978;51.020;6.764;2023-03-26T17:48:58;19.23;;;13.18;;
11837;SDS011;5978;51.020;6.764;2023-03-26T17:54:33;21.15;;;12.15;;
11837;SDS011;5978;51.020;6.764;2023-03-26T17:57:05;20.77;;;11.38;;
11837;SDS011;5978;51.020;6.764;2023-03-26T17:59:41;19.30;;;10.55;;
11837;SDS011;5978;51.020;6.764;2023-03-26T18:02:22;22.30;;;8.25;;
11837;SDS011;5978;51.020;6.764;2023-03-26T18:05:03;14.77;;;8.60;;
11837;SDS011;5978;51.020;6.764;2023-03-26T18:15:28;17.90;;;6.80;;
11837;SDS011;5978;51.020;6.764;2023-03-26T18:18:05;25.30;;;6.38;;
11837;SDS011;5978;51.020;6.764;2023-03-26T18:20:35;11.65;;;6.38;;
11837;SDS011;5978;51.020;6.764;2023-03-26T18:23:08;13.63;;;6.25;;
11837;SDS011;5978;51.020;6.764;2023-03-26T18:25:36;11.10;;;6.15;;
11837;SDS011;5978;51.020;6.764;2023-03-26T18:28:05;14.70;;;6.65;;
11837;SDS011;5978;51.020;6.764;2023-03-26T18:30:31;9.20;;;5.40;;
11837;SDS011;5978;51.020;6.764;2023-03-26T18:33:00;13.40;;;6.23;;
11837;SDS011;5978;51.020;6.764;2023-03-26T18:35:40;15.85;;;7.05;;
11837;SDS011;5978;51.020;6.764;2023-03-26T18:38:21;16.77;;;5.57;;
11837;SDS011;5978;51.020;6.764;2023-03-26T18:40:48;8.32;;;5.13;;
11837;SDS011;5978;51.020;6.764;2023-03-26T18:43:17;19.50;;;5.15;;
11837;SDS011;5978;51.020;6.764;2023-03-26T18:45:47;18.73;;;5.80;;
11837;SDS011;5978;51.020;6.764;2023-03-26T18:48:18;13.65;;;5.30;;
11837;SDS011;5978;51.020;6.764;2023-03-26T18:50:52;16.10;;;5.88;;
11837;SDS011;5978;51.020;6.764;2023-03-26T18:53:24;11.63;;;5.07;;
11837;SDS011;5978;51.020;6.764;2023-03-26T18:55:53;8.88;;;5.55;;
11837;SDS011;5978;51.020;6.764;2023-03-26T18:58:25;14.48;;;5.72;;
11837;SDS011;5978;51.020;6.764;2023-03-26T19:01:00;14.75;;;5.90;;
11837;SDS011;5978;51.020;6.764;2023-03-26T19:03:35;11.23;;;5.10;;
11837;SDS011;5978;51.020;6.764;2023-03-26T19:06:05;16.55;;;5.55;;
11837;SDS011;5978;51.020;6.764;2023-03-26T19:08:34;15.15;;;5.63;;
11837;SDS011;5978;51.020;6.764;2023-03-26T19:11:03;11.88;;;5.47;;
11837;SDS011;5978;51.020;6.764;2023-03-26T19:13:31;9.60;;;3.92;;
11837;SDS011;5978;51.020;6.764;2023-03-26T19:15:59;10.02;;;3.72;;
11837;SDS011;5978;51.020;6.764;2023-03-26T19:18:31;12.77;;;4.75;;
11837;SDS011;5978;51.020;6.764;2023-03-26T19:20:58;11.30;;;3.63;;
11837;SDS011;5978;51.020;6.764;2023-03-26T19:23:30;9.10;;;4.43;;
11837;SDS011;5978;51.020;6.764;2023-03-26T19:26:03;8.63;;;4.22;;
11837;SDS011;5978;51.020;6.764;2023-03-26T19:28:41;13.70;;;5.25;;
11837;SDS011;5978;51.020;6.764;2023-03-26T19:39:22;9.82;;;4.13;;
11837;SDS011;5978;51.020;6.764;2023-03-26T19:41:50;13.27;;;4.63;;
11837;SDS011;5978;51.020;6.764;2023-03-26T19:44:18;12.90;;;4.72;;
11837;SDS011;5978;51.020;6.764;2023-03-26T19:46:44;13.60;;;3.95;;
11837;SDS011;5978;51.020;6.764;2023-03-26T19:57:45;15.10;;;5.45;;
11837;SDS011;5978;51.020;6.764;2023-03-26T20:00:12;11.00;;;3.60;;
11837;SDS011;5978;51.020;6.764;2023-03-26T20:02:38;15.23;;;4.20;;
11837;SDS011;5978;51.020;6.764;2023-03-26T20:05:09;8.93;;;3.63;;
11837;SDS011;5978;51.020;6.764;2023-03-26T20:07:43;13.18;;;4.85;;
11837;SDS011;5978;51.020;6.764;2023-03-26T20:10:10;14.75;;;4.28;;
11837;SDS011;5978;51.020;6.764;2023-03-26T20:12:36;8.93;;;4.90;;
11837;SDS011;5978;51.020;6.764;2023-03-26T20:15:08;12.70;;;3.80;;
11837;SDS011;5978;51.020;6.764;2023-03-26T20:17:40;7.10;;;3.05;;
11837;SDS011;5978;51.020;6.764;2023-03-26T20:20:09;13.25;;;3.65;;
11837;SDS011;5978;51.020;6.764;2023-03-26T20:22:38;15.57;;;3.58;;
11837;SDS011;5978;51.020;6.764;2023-03-26T20:25:26;9.77;;;3.97;;
11837;SDS011;5978;51.020;6.764;2023-03-26T20:27:52;13.48;;;3.58;;
11837;SDS011;5978;51.020;6.764;2023-03-26T20:30:19;10.57;;;3.58;;
11837;SDS011;5978;51.020;6.764;2023-03-26T20:32:46;7.25;;;2.80;;
11837;SDS011;5978;51.020;6.764;2023-03-26T20:35:15;10.75;;;3.80;;
11837;SDS011;5978;51.020;6.764;2023-03-26T20:37:43;11.32;;;3.00;;
11837;SDS011;5978;51.020;6.764;2023-03-26T20:40:09;8.93;;;2.88;;
11837;SDS011;5978;51.020;6.764;2023-03-26T20:42:36;13.45;;;4.13;;
11837;SDS011;5978;51.020;6.764;2023-03-26T20:45:21;13.57;;;4.63;;
11837;SDS011;5978;51.020;6.764;2023-03-26T20:47:48;8.15;;;3.60;;
11837;SDS011;5978;51.020;6.764;2023-03-26T20:50:18;9.27;;;3.10;;
11837;SDS011;5978;51.020;6.764;2023-03-26T20:52:47;11.93;;;3.92;;
11837;SDS011;5978;51.020;6.764;2023-03-26T20:55:15;14.95;;;3.97;;
11837;SDS011;5978;51.020;6.764;2023-03-26T20:57:45;14.60;;;4.15;;
11837;SDS011;5978;51.020;6.764;2023-03-26T21:00:12;9.50;;;3.55;;
11837;SDS011;5978;51.020;6.764;2023-03-26T21:02:42;7.35;;;3.33;;
11837;SDS011;5978;51.020;6.764;2023-03-26T21:05:11;14.23;;;3.53;;
11837;SDS011;5978;51.020;6.764;2023-03-26T21:07:43;8.27;;;2.50;;
11837;SDS011;5978;51.020;6.764;2023-03-26T21:10:12;8.75;;;3.35;;
11837;SDS011;5978;51.020;6.764;2023-03-26T21:12:40;13.23;;;3.55;;
11837;SDS011;5978;51.020;6.764;2023-03-26T21:15:12;17.45;;;3.45;;
11837;SDS011;5978;51.020;6.764;2023-03-26T21:17:38;6.53;;;2.75;;
11837;SDS011;5978;51.020;6.764;2023-03-26T21:20:04;8.95;;;3.65;;
11837;SDS011;5978;51.020;6.764;2023-03-26T21:22:40;16.73;;;3.60;;
11837;SDS011;5978;51.020;6.764;2023-03-26T21:30:13;16.03;;;2.60;;
11837;SDS011;5978;51.020;6.764;2023-03-26T21:32:40;14.27;;;2.50;;
11837;SDS011;5978;51.020;6.764;2023-03-26T21:35:08;10.43;;;3.40;;
11837;SDS011;5978;51.020;6.764;2023-03-26T21:37:35;14.93;;;3.05;;
11837;SDS011;5978;51.020;6.764;2023-03-26T21:40:02;10.80;;;3.55;;
11837;SDS011;5978;51.020;6.764;2023-03-26T21:42:38;4.07;;;1.73;;
11837;SDS011;5978;51.020;6.764;2023-03-26T21:45:06;6.28;;;2.50;;
11837;SDS011;5978;51.020;6.764;2023-03-26T21:47:32;5.63;;;2.35;;